Meeker, Colorado
Current Conditions -  °F | °C
As of 8:53 PM on Wednesday 26 Nov 2014 (Local Time) from KEEO Reporting Station
Clear Clear  
Wind Chill: 24°   Ceiling: Unl
Heat Index: 29°   Visibility: 10mi
Dew Point: 23°   Wind: 5mph
Humidity: 78%   Direction: 30°NNE
Pressure: 30.43"   Gusts: NA
Location:  40.04°N, 107.91°W
Report Text: KEEO 270353Z AUTO 03004KT 10SM CLR M02/M05 A3043 RMK AO2 SLP318 T10171050
Loading
Personal Weather Stations






























Interactive Weather Map New forecast layout! Learn more

10-Day Weather Forecast

Advertisements
Track Severe Weather on mobile